Time;durP1;ratioP1;P1;durP2;ratioP2;P2;SDS_P1;SDS_P2;PMS_P1;PMS_P2;Temp;Humidity;BMP_temperature;BMP_pressure;BME280_temperature;BME280_humidity;BME280_pressure;Samples;Min_cycle;Max_cycle;Signal;HPM_P1;HPM_P2
2022/12/16 00:01:45;;;;;;;;;40.25;34.50;;;;;1.49;63.89;100344.22;5077812;27;45550;-62
2022/12/16 00:04:13;;;;;;;;;44.75;34.25;;;;;1.50;63.83;100361.66;5112033;27;45305;-60
2022/12/16 00:06:39;;;;;;;;;52.00;39.25;;;;;1.50;64.29;100359.03;5080751;27;45643;-62
2022/12/16 00:09:04;;;;;;;;;43.75;38.75;;;;;1.46;63.65;100362.63;5077832;27;45568;-61
2022/12/16 00:11:31;;;;;;;;;39.50;35.50;;;;;1.44;64.05;100367.06;5095093;27;45433;-60
2022/12/16 00:13:57;;;;;;;;;50.50;38.50;;;;;1.39;64.31;100361.91;5097232;27;45401;-60
2022/12/16 00:16:22;;;;;;;;;45.75;36.75;;;;;1.42;64.23;100371.44;5095594;27;45317;-61
2022/12/16 00:18:48;;;;;;;;;51.25;45.50;;;;;1.40;64.46;100366.25;5077960;27;45536;-61
2022/12/16 00:21:17;;;;;;;;;53.75;45.00;;;;;1.31;64.38;100355.97;5097420;27;45501;-62
2022/12/16 00:23:46;;;;;;;;;43.50;36.50;;;;;1.36;64.45;100375.06;5077549;27;45324;-61
2022/12/16 00:26:12;;;;;;;;;50.25;37.50;;;;;1.33;65.03;100377.75;5096706;27;45346;-62
2022/12/16 00:28:39;;;;;;;;;50.50;42.25;;;;;1.33;64.62;100385.63;5098163;27;45471;-61
2022/12/16 00:31:05;;;;;;;;;45.50;38.75;;;;;1.30;65.04;100369.97;5095269;27;45572;-60
2022/12/16 00:33:31;;;;;;;;;36.50;36.00;;;;;1.30;64.87;100387.44;5078321;27;45568;-61
2022/12/16 00:35:57;;;;;;;;;44.00;39.25;;;;;1.25;65.03;100365.72;5096702;27;45648;-61
2022/12/16 00:38:24;;;;;;;;;38.75;34.75;;;;;1.27;65.47;100380.50;5096790;27;45437;-61
2022/12/16 00:40:49;;;;;;;;;49.25;44.50;;;;;1.30;64.77;100395.28;5095030;27;45472;-60
2022/12/16 00:43:15;;;;;;;;;47.50;38.00;;;;;1.29;64.41;100383.09;5077384;28;45492;-61
2022/12/16 00:45:40;;;;;;;;;50.75;45.00;;;;;1.34;64.93;100387.34;5084625;27;45612;-60
2022/12/16 00:48:07;;;;;;;;;41.50;39.75;;;;;1.30;65.25;100395.28;5097713;27;45354;-62
2022/12/16 00:50:33;;;;;;;;;42.50;41.00;;;;;1.28;65.53;100387.47;5082429;27;45453;-60
2022/12/16 00:52:59;;;;;;;;;60.50;44.50;;;;;1.30;65.16;100395.28;5078465;27;45317;-61
2022/12/16 00:55:24;;;;;;;;;50.25;40.75;;;;;1.28;65.68;100397.09;5096085;27;45231;-60
2022/12/16 00:57:50;;;;;;;;;59.75;45.25;;;;;1.20;65.27;100378.06;5088058;27;46261;-61
2022/12/16 01:00:17;;;;;;;;;36.25;32.50;;;;;1.26;65.27;100404.13;5081768;27;45340;-60
2022/12/16 01:02:44;;;;;;;;;40.00;36.75;;;;;1.22;65.23;100392.84;5102592;27;45455;-61
2022/12/16 01:05:12;;;;;;;;;56.50;39.50;;;;;1.28;65.08;100397.09;5096382;27;45551;-61
2022/12/16 01:07:38;;;;;;;;;43.50;36.25;;;;;1.34;65.53;100407.44;5078078;27;47399;-60
2022/12/16 01:10:05;;;;;;;;;45.00;41.50;;;;;1.38;64.98;100406.47;5097754;27;45253;-61
2022/12/16 01:12:30;;;;;;;;;47.00;42.75;;;;;1.35;66.01;100414.41;5096622;27;45236;-60
2022/12/16 01:14:56;;;;;;;;;42.75;39.50;;;;;1.33;65.29;100410.97;5092895;27;46107;-62
2022/12/16 01:17:24;;;;;;;;;45.50;34.00;;;;;1.34;65.75;100413.53;5076797;28;45289;-61
2022/12/16 01:19:50;;;;;;;;;46.25;39.25;;;;;1.22;65.87;100405.09;5090263;27;45382;-60
2022/12/16 01:22:16;;;;;;;;;41.25;40.25;;;;;1.25;65.79;100420.72;5079325;27;45394;-60
2022/12/16 01:24:43;;;;;;;;;44.50;39.75;;;;;1.27;66.38;100424.19;5096369;27;45319;-61
2022/12/16 01:27:09;;;;;;;;;49.50;38.75;;;;;1.20;66.54;100419.97;5095326;27;46434;-60
2022/12/16 01:29:34;;;;;;;;;53.50;44.50;;;;;1.22;66.42;100433.91;5096968;27;45283;-60
2022/12/16 01:31:59;;;;;;;;;37.50;33.25;;;;;1.21;66.74;100433.03;5077148;27;46061;-60
2022/12/16 01:34:25;;;;;;;;;39.50;36.00;;;;;1.18;66.93;100433.97;5078335;27;45259;-61
2022/12/16 01:36:50;;;;;;;;;48.00;37.25;;;;;1.21;66.76;100448.75;5097226;27;45311;-60
2022/12/16 01:39:15;;;;;;;;;45.00;39.00;;;;;1.20;66.68;100444.41;5093630;27;45370;-64
2022/12/16 01:41:41;;;;;;;;;58.50;45.50;;;;;1.18;67.07;100454.91;5093486;27;45519;-62
2022/12/16 01:44:25;;;;;;;;;44.50;36.25;;;;;1.18;66.84;100459.31;5097019;27;45456;-62
2022/12/16 01:47:03;;;;;;;;;42.25;36.00;;;;;1.17;67.16;100454.91;5094948;27;45493;-60
2022/12/16 01:50:08;;;;;;;;;48.00;38.00;;;;;1.22;67.53;100460.09;5087673;27;45465;-61
2022/12/16 01:52:40;;;;;;;;;49.25;39.50;;;;;1.23;66.65;100461.81;5002431;28;45422;-61
2022/12/16 01:55:11;;;;;;;;;38.75;37.75;;;;;1.21;67.28;100474.09;5087521;27;45288;-59
2022/12/16 01:57:46;;;;;;;;;48.25;39.00;;;;;1.24;67.00;100474.03;5096860;27;46400;-61
2022/12/16 02:00:12;;;;;;;;;49.50;41.50;;;;;1.28;67.09;100475.66;5095741;27;45480;-61
2022/12/16 02:02:38;;;;;;;;;46.75;41.50;;;;;1.24;67.43;100477.50;5104906;27;45483;-61
2022/12/16 02:05:19;;;;;;;;;52.25;39.50;;;;;1.26;67.60;100490.56;5101482;27;45611;-61
2022/12/16 02:08:05;;;;;;;;;47.00;37.25;;;;;1.26;67.45;100487.94;5078146;27;46120;-61
2022/12/16 02:10:43;;;;;;;;;49.00;41.50;;;;;1.26;67.83;100490.56;5092071;27;45503;-62
2022/12/16 02:13:24;;;;;;;;;51.75;42.25;;;;;1.24;67.72;100489.72;5076689;28;45389;-61
2022/12/16 02:15:58;;;;;;;;;62.00;45.00;;;;;1.28;67.42;100494.00;5093056;27;45409;-60
2022/12/16 02:18:26;;;;;;;;;33.25;30.75;;;;;1.30;67.50;100492.22;5077701;27;45570;-61
2022/12/16 02:20:51;;;;;;;;;47.00;37.75;;;;;1.33;66.93;100489.56;5057733;28;45454;-61
2022/12/16 02:23:52;;;;;;;;;39.50;36.75;;;;;1.34;67.31;100496.53;5076794;27;45461;-59
2022/12/16 02:26:49;;;;;;;;;33.50;26.75;;;;;1.38;67.63;100498.19;5083436;27;45578;-62
2022/12/16 02:29:50;;;;;;;;;36.50;32.50;;;;;1.42;67.84;100497.22;5096739;27;46580;-59
2022/12/16 02:32:30;;;;;;;;;36.25;31.50;;;;;1.42;67.75;100491.97;5095868;27;45339;-60
2022/12/16 02:35:23;;;;;;;;;47.50;35.25;;;;;1.36;67.57;100486.88;5096079;27;45273;-61
2022/12/16 02:38:01;;;;;;;;;50.25;34.50;;;;;1.40;68.01;100491.16;5084573;27;45680;-61
2022/12/16 02:40:50;;;;;;;;;34.75;26.00;;;;;1.37;67.86;100475.50;5092846;27;46482;-61
2022/12/16 02:43:36;;;;;;;;;40.00;35.00;;;;;1.37;67.50;100485.97;5099110;27;45262;-61
2022/12/16 02:46:05;;;;;;;;;37.25;35.00;;;;;1.38;67.03;100487.69;5081441;27;45258;-60
2022/12/16 02:48:30;;;;;;;;;49.00;41.75;;;;;1.45;67.63;100491.94;5099404;27;45473;-60
2022/12/16 02:50:56;;;;;;;;;54.25;42.25;;;;;1.47;67.31;100495.38;5097629;27;45434;-61
2022/12/16 02:53:21;;;;;;;;;40.50;33.75;;;;;1.40;67.24;100499.00;5095793;27;45751;-61
2022/12/16 02:56:17;;;;;;;;;46.75;39.00;;;;;1.44;67.65;100505.94;5100012;27;45362;-61
2022/12/16 02:58:51;;;;;;;;;45.50;36.00;;;;;1.46;67.59;100501.53;5094289;27;45792;-60
2022/12/16 03:01:34;;;;;;;;;33.50;30.50;;;;;1.45;67.58;100499.81;5099663;27;45292;-60
2022/12/16 03:04:11;;;;;;;;;44.50;38.75;;;;;1.44;67.78;100503.31;5085592;27;45401;-61
2022/12/16 03:06:41;;;;;;;;;37.75;36.50;;;;;1.42;67.07;100510.31;5099345;27;45469;-61
2022/12/16 03:09:11;;;;;;;;;48.50;42.75;;;;;1.42;67.60;100507.69;5097748;27;45200;-61
2022/12/16 03:11:41;;;;;;;;;45.50;44.50;;;;;1.33;67.14;100500.03;5094066;27;45481;-60
2022/12/16 03:14:12;;;;;;;;;59.75;44.75;;;;;1.32;67.50;100503.56;5094185;27;45449;-59
2022/12/16 03:16:38;;;;;;;;;45.25;42.50;;;;;1.32;67.83;100503.56;5078747;28;45429;-60
2022/12/16 03:19:07;;;;;;;;;49.75;33.75;;;;;1.31;67.33;100509.69;5091216;27;45343;-60
2022/12/16 03:21:41;;;;;;;;;48.75;43.00;;;;;1.37;67.82;100505.19;5079338;27;46279;-60
2022/12/16 03:24:09;;;;;;;;;54.00;47.25;;;;;1.31;67.66;100507.94;5079685;27;45272;-61
2022/12/16 03:26:55;;;;;;;;;53.25;43.50;;;;;1.32;67.11;100514.91;5080421;27;45501;-60
2022/12/16 03:29:25;;;;;;;;;37.00;36.00;;;;;1.34;67.50;100518.34;5091097;27;45489;-61
2022/12/16 03:32:02;;;;;;;;;50.75;45.00;;;;;1.32;67.11;100517.53;5088374;27;46199;-61
2022/12/16 03:34:52;;;;;;;;;38.25;34.50;;;;;1.29;67.43;100521.94;5094529;27;45391;-61
2022/12/16 03:37:21;;;;;;;;;50.50;40.00;;;;;1.31;67.03;100522.78;5079567;27;45469;-60
2022/12/16 03:39:51;;;;;;;;;49.25;43.25;;;;;1.27;67.59;100532.44;5097392;27;45573;-61
2022/12/16 03:42:17;;;;;;;;;50.50;46.75;;;;;1.26;68.15;100529.88;5097281;27;45476;-60
2022/12/16 03:44:45;;;;;;;;;60.50;50.25;;;;;1.18;67.96;100528.28;5097102;27;45375;-61
2022/12/16 03:47:11;;;;;;;;;56.25;48.00;;;;;1.20;67.77;100530.84;5098033;27;45251;-60
2022/12/16 03:49:37;;;;;;;;;45.50;32.50;;;;;1.27;67.48;100531.59;5080859;27;45502;-61
2022/12/16 03:52:03;;;;;;;;;58.75;46.25;;;;;1.25;67.68;100538.63;5059051;28;46336;-64
2022/12/16 03:54:29;;;;;;;;;56.50;48.50;;;;;1.22;67.21;100534.31;5094867;27;45469;-60
2022/12/16 03:56:54;;;;;;;;;58.25;48.25;;;;;1.22;67.16;100522.97;5098494;27;45658;-61
2022/12/16 03:59:19;;;;;;;;;55.67;47.33;;;;;1.32;67.35;100540.25;5098196;27;45334;-61
2022/12/16 04:01:45;;;;;;;;;45.33;38.00;;;;;1.34;66.85;100539.31;5099276;27;46065;-62
2022/12/16 04:04:11;;;;;;;;;57.25;48.00;;;;;1.37;67.01;100538.38;5095526;27;45516;-60
2022/12/16 04:06:36;;;;;;;;;50.75;45.00;;;;;1.34;67.05;100546.31;5084128;27;45449;-63
2022/12/16 04:09:02;;;;;;;;;43.75;38.75;;;;;1.32;67.40;100540.25;5085338;27;45615;-60
2022/12/16 04:25:34;;;;;;;;;51.00;45.25;;;;;1.10;68.65;100572.06;5098403;27;45453;-61
2022/12/16 04:28:00;;;;;;;;;57.00;44.75;;;;;1.04;68.99;100572.19;5063281;27;45461;-60
2022/12/16 04:30:27;;;;;;;;;55.75;44.50;;;;;0.98;69.09;100572.28;5097958;27;45489;-61
